sensor_id;sensor_type;location;lat;lon;timestamp;P1;durP1;ratioP1;P2;durP2;ratioP2
60016;SDS011;45869;52.698;6.210;2023-04-30T00:01:38;3.35;;;2.08;;
60016;SDS011;45869;52.698;6.210;2023-04-30T00:04:04;4.20;;;2.33;;
60016;SDS011;45869;52.698;6.210;2023-04-30T00:06:34;3.35;;;2.50;;
60016;SDS011;45869;52.698;6.210;2023-04-30T00:09:00;3.55;;;2.20;;
60016;SDS011;45869;52.698;6.210;2023-04-30T00:11:25;10.20;;;2.40;;
60016;SDS011;45869;52.698;6.210;2023-04-30T00:13:52;5.25;;;2.60;;
60016;SDS011;45869;52.698;6.210;2023-04-30T00:16:18;4.28;;;2.53;;
60016;SDS011;45869;52.698;6.210;2023-04-30T00:18:44;4.32;;;2.45;;
60016;SDS011;45869;52.698;6.210;2023-04-30T00:21:10;4.65;;;2.47;;
60016;SDS011;45869;52.698;6.210;2023-04-30T00:23:36;3.53;;;2.28;;
60016;SDS011;45869;52.698;6.210;2023-04-30T00:26:02;6.07;;;3.50;;
60016;SDS011;45869;52.698;6.210;2023-04-30T00:28:28;5.68;;;3.22;;
60016;SDS011;45869;52.698;6.210;2023-04-30T00:30:54;5.20;;;3.17;;
60016;SDS011;45869;52.698;6.210;2023-04-30T00:33:20;7.13;;;3.25;;
60016;SDS011;45869;52.698;6.210;2023-04-30T00:35:46;4.60;;;2.80;;
60016;SDS011;45869;52.698;6.210;2023-04-30T00:38:18;4.90;;;3.28;;
60016;SDS011;45869;52.698;6.210;2023-04-30T00:40:44;6.30;;;3.63;;
60016;SDS011;45869;52.698;6.210;2023-04-30T00:43:10;5.05;;;3.17;;
60016;SDS011;45869;52.698;6.210;2023-04-30T00:45:36;8.95;;;3.40;;
60016;SDS011;45869;52.698;6.210;2023-04-30T00:48:05;9.48;;;3.60;;
60016;SDS011;45869;52.698;6.210;2023-04-30T00:50:32;8.07;;;3.88;;
60016;SDS011;45869;52.698;6.210;2023-04-30T00:53:03;7.80;;;3.38;;
60016;SDS011;45869;52.698;6.210;2023-04-30T00:55:32;5.93;;;3.63;;
60016;SDS011;45869;52.698;6.210;2023-04-30T00:57:58;5.93;;;3.35;;
60016;SDS011;45869;52.698;6.210;2023-04-30T01:00:25;6.13;;;3.40;;
60016;SDS011;45869;52.698;6.210;2023-04-30T01:02:51;6.20;;;3.30;;
60016;SDS011;45869;52.698;6.210;2023-04-30T01:05:18;6.38;;;3.53;;
60016;SDS011;45869;52.698;6.210;2023-04-30T01:07:44;7.72;;;3.78;;
60016;SDS011;45869;52.698;6.210;2023-04-30T01:10:13;7.68;;;3.80;;
60016;SDS011;45869;52.698;6.210;2023-04-30T01:17:47;6.85;;;3.90;;
60016;SDS011;45869;52.698;6.210;2023-04-30T01:20:20;6.68;;;3.63;;
60016;SDS011;45869;52.698;6.210;2023-04-30T01:22:51;8.57;;;4.30;;
60016;SDS011;45869;52.698;6.210;2023-04-30T01:28:05;7.53;;;4.15;;
60016;SDS011;45869;52.698;6.210;2023-04-30T01:30:33;5.88;;;4.03;;
60016;SDS011;45869;52.698;6.210;2023-04-30T01:32:59;7.53;;;3.92;;
60016;SDS011;45869;52.698;6.210;2023-04-30T01:35:33;7.65;;;4.10;;
60016;SDS011;45869;52.698;6.210;2023-04-30T01:38:08;6.05;;;3.70;;
60016;SDS011;45869;52.698;6.210;2023-04-30T01:43:10;7.22;;;4.07;;
60016;SDS011;45869;52.698;6.210;2023-04-30T01:48:22;6.60;;;3.78;;
60016;SDS011;45869;52.698;6.210;2023-04-30T01:53:42;5.78;;;3.72;;
60016;SDS011;45869;52.698;6.210;2023-04-30T01:56:09;9.25;;;4.20;;
60016;SDS011;45869;52.698;6.210;2023-04-30T01:58:38;6.68;;;4.05;;
60016;SDS011;45869;52.698;6.210;2023-04-30T02:01:05;9.20;;;4.70;;
60016;SDS011;45869;52.698;6.210;2023-04-30T02:03:31;7.45;;;4.35;;
60016;SDS011;45869;52.698;6.210;2023-04-30T02:05:57;6.47;;;4.10;;
60016;SDS011;45869;52.698;6.210;2023-04-30T02:08:23;7.60;;;4.20;;
60016;SDS011;45869;52.698;6.210;2023-04-30T02:10:49;7.40;;;4.00;;
60016;SDS011;45869;52.698;6.210;2023-04-30T02:13:15;7.18;;;4.18;;
60016;SDS011;45869;52.698;6.210;2023-04-30T02:15:41;9.90;;;5.25;;
60016;SDS011;45869;52.698;6.210;2023-04-30T02:18:07;6.28;;;4.07;;
60016;SDS011;45869;52.698;6.210;2023-04-30T02:20:33;7.25;;;4.30;;
60016;SDS011;45869;52.698;6.210;2023-04-30T02:22:59;8.88;;;4.45;;
60016;SDS011;45869;52.698;6.210;2023-04-30T02:25:25;8.10;;;4.22;;
60016;SDS011;45869;52.698;6.210;2023-04-30T02:27:51;6.90;;;4.20;;
60016;SDS011;45869;52.698;6.210;2023-04-30T02:30:17;6.50;;;3.90;;
60016;SDS011;45869;52.698;6.210;2023-04-30T02:32:44;9.35;;;3.70;;
60016;SDS011;45869;52.698;6.210;2023-04-30T02:35:10;8.00;;;4.30;;
60016;SDS011;45869;52.698;6.210;2023-04-30T02:37:36;9.40;;;3.85;;
60016;SDS011;45869;52.698;6.210;2023-04-30T02:40:03;10.38;;;4.63;;
60016;SDS011;45869;52.698;6.210;2023-04-30T02:42:29;9.55;;;4.50;;
60016;SDS011;45869;52.698;6.210;2023-04-30T02:44:55;7.32;;;4.07;;
60016;SDS011;45869;52.698;6.210;2023-04-30T02:47:21;9.23;;;4.55;;
60016;SDS011;45869;52.698;6.210;2023-04-30T02:49:47;8.20;;;4.45;;
60016;SDS011;45869;52.698;6.210;2023-04-30T02:52:13;9.20;;;4.22;;
60016;SDS011;45869;52.698;6.210;2023-04-30T02:54:39;7.80;;;4.25;;
60016;SDS011;45869;52.698;6.210;2023-04-30T02:57:06;10.27;;;4.38;;
60016;SDS011;45869;52.698;6.210;2023-04-30T02:59:32;10.15;;;4.55;;
60016;SDS011;45869;52.698;6.210;2023-04-30T03:01:58;8.88;;;4.53;;
60016;SDS011;45869;52.698;6.210;2023-04-30T03:04:24;7.65;;;4.53;;
60016;SDS011;45869;52.698;6.210;2023-04-30T03:06:50;8.43;;;4.38;;
60016;SDS011;45869;52.698;6.210;2023-04-30T03:09:16;7.68;;;4.50;;
60016;SDS011;45869;52.698;6.210;2023-04-30T03:11:42;8.18;;;4.70;;
60016;SDS011;45869;52.698;6.210;2023-04-30T03:14:08;5.68;;;4.13;;
60016;SDS011;45869;52.698;6.210;2023-04-30T03:16:35;10.07;;;5.05;;
60016;SDS011;45869;52.698;6.210;2023-04-30T03:19:01;7.40;;;4.28;;
60016;SDS011;45869;52.698;6.210;2023-04-30T03:21:27;6.95;;;3.78;;
60016;SDS011;45869;52.698;6.210;2023-04-30T03:23:53;6.13;;;3.83;;
60016;SDS011;45869;52.698;6.210;2023-04-30T03:26:19;8.00;;;4.57;;
60016;SDS011;45869;52.698;6.210;2023-04-30T03:28:49;6.28;;;4.28;;
60016;SDS011;45869;52.698;6.210;2023-04-30T03:31:15;8.20;;;4.70;;
60016;SDS011;45869;52.698;6.210;2023-04-30T03:33:41;8.00;;;4.57;;
60016;SDS011;45869;52.698;6.210;2023-04-30T03:36:07;7.03;;;4.03;;
60016;SDS011;45869;52.698;6.210;2023-04-30T03:38:33;7.35;;;4.40;;
60016;SDS011;45869;52.698;6.210;2023-04-30T03:41:00;5.95;;;4.10;;
60016;SDS011;45869;52.698;6.210;2023-04-30T03:43:25;9.93;;;4.53;;
60016;SDS011;45869;52.698;6.210;2023-04-30T03:45:52;6.35;;;4.07;;
60016;SDS011;45869;52.698;6.210;2023-04-30T03:48:18;5.72;;;4.20;;
60016;SDS011;45869;52.698;6.210;2023-04-30T03:50:44;8.20;;;4.60;;
60016;SDS011;45869;52.698;6.210;2023-04-30T03:53:10;8.43;;;5.45;;
60016;SDS011;45869;52.698;6.210;2023-04-30T03:55:39;11.50;;;5.10;;
60016;SDS011;45869;52.698;6.210;2023-04-30T03:58:05;8.90;;;5.20;;
60016;SDS011;45869;52.698;6.210;2023-04-30T04:00:32;10.13;;;5.47;;
60016;SDS011;45869;52.698;6.210;2023-04-30T04:02:58;9.00;;;5.72;;
60016;SDS011;45869;52.698;6.210;2023-04-30T04:05:26;9.00;;;5.60;;
60016;SDS011;45869;52.698;6.210;2023-04-30T04:07:53;8.43;;;5.88;;
60016;SDS011;45869;52.698;6.210;2023-04-30T04:10:19;7.25;;;5.63;;
60016;SDS011;45869;52.698;6.210;2023-04-30T04:12:45;6.72;;;5.07;;
60016;SDS011;45869;52.698;6.210;2023-04-30T04:15:11;8.98;;;5.03;;
60016;SDS011;45869;52.698;6.210;2023-04-30T04:17:37;8.00;;;5.10;;
60016;SDS011;45869;52.698;6.210;2023-04-30T04:20:03;7.93;;;4.90;;
60016;SDS011;45869;52.698;6.210;2023-04-30T04:22:30;9.88;;;5.10;;
60016;SDS011;45869;52.698;6.210;2023-04-30T04:24:56;7.22;;;4.93;;
60016;SDS011;45869;52.698;6.210;2023-04-30T04:27:22;9.45;;;5.60;;
60016;SDS011;45869;52.698;6.210;2023-04-30T04:29:49;9.18;;;5.40;;
60016;SDS011;45869;52.698;6.210;2023-04-30T04:32:15;11.93;;;5.35;;
60016;SDS011;45869;52.698;6.210;2023-04-30T04:34:41;7.47;;;4.78;;
60016;SDS011;45869;52.698;6.210;2023-04-30T04:37:07;6.65;;;4.15;;
60016;SDS011;45869;52.698;6.210;2023-04-30T04:39:34;6.95;;;4.60;;
60016;SDS011;45869;52.698;6.210;2023-04-30T04:42:01;5.90;;;4.90;;
60016;SDS011;45869;52.698;6.210;2023-04-30T04:44:27;6.55;;;4.75;;
60016;SDS011;45869;52.698;6.210;2023-04-30T04:46:53;8.13;;;5.18;;
60016;SDS011;45869;52.698;6.210;2023-04-30T04:49:20;7.78;;;5.05;;
60016;SDS011;45869;52.698;6.210;2023-04-30T04:51:46;7.53;;;5.22;;
60016;SDS011;45869;52.698;6.210;2023-04-30T04:54:12;7.15;;;5.40;;
60016;SDS011;45869;52.698;6.210;2023-04-30T04:56:38;6.25;;;4.75;;
60016;SDS011;45869;52.698;6.210;2023-04-30T04:59:04;9.40;;;5.10;;
60016;SDS011;45869;52.698;6.210;2023-04-30T05:01:33;7.25;;;5.35;;
60016;SDS011;45869;52.698;6.210;2023-04-30T05:03:59;6.82;;;4.90;;
60016;SDS011;45869;52.698;6.210;2023-04-30T05:06:25;6.85;;;4.82;;
60016;SDS011;45869;52.698;6.210;2023-04-30T05:08:52;7.55;;;5.00;;
60016;SDS011;45869;52.698;6.210;2023-04-30T05:11:18;6.00;;;4.45;;
60016;SDS011;45869;52.698;6.210;2023-04-30T05:13:45;6.47;;;4.13;;
60016;SDS011;45869;52.698;6.210;2023-04-30T05:16:11;7.03;;;4.90;;
60016;SDS011;45869;52.698;6.210;2023-04-30T05:18:37;6.63;;;4.63;;
60016;SDS011;45869;52.698;6.210;2023-04-30T05:21:03;6.65;;;4.65;;
60016;SDS011;45869;52.698;6.210;2023-04-30T05:23:30;7.75;;;5.20;;
60016;SDS011;45869;52.698;6.210;2023-04-30T05:25:56;8.80;;;4.30;;
60016;SDS011;45869;52.698;6.210;2023-04-30T05:28:22;8.52;;;5.55;;
60016;SDS011;45869;52.698;6.210;2023-04-30T05:30:51;14.68;;;6.45;;
60016;SDS011;45869;52.698;6.210;2023-04-30T05:33:17;9.77;;;5.93;;
60016;SDS011;45869;52.698;6.210;2023-04-30T05:35:45;11.15;;;6.63;;
60016;SDS011;45869;52.698;6.210;2023-04-30T05:38:11;8.93;;;6.05;;
60016;SDS011;45869;52.698;6.210;2023-04-30T05:40:37;7.85;;;5.90;;
60016;SDS011;45869;52.698;6.210;2023-04-30T05:43:03;13.32;;;7.78;;
60016;SDS011;45869;52.698;6.210;2023-04-30T05:45:29;10.43;;;6.60;;
60016;SDS011;45869;52.698;6.210;2023-04-30T05:47:55;11.20;;;7.72;;
60016;SDS011;45869;52.698;6.210;2023-04-30T05:50:21;13.68;;;7.53;;
60016;SDS011;45869;52.698;6.210;2023-04-30T05:52:47;13.68;;;6.88;;
60016;SDS011;45869;52.698;6.210;2023-04-30T05:55:13;14.70;;;7.20;;
60016;SDS011;45869;52.698;6.210;2023-04-30T05:57:39;11.00;;;6.93;;
60016;SDS011;45869;52.698;6.210;2023-04-30T06:00:05;12.13;;;7.13;;
60016;SDS011;45869;52.698;6.210;2023-04-30T06:02:32;12.10;;;6.93;;
60016;SDS011;45869;52.698;6.210;2023-04-30T06:05:00;10.98;;;6.88;;
60016;SDS011;45869;52.698;6.210;2023-04-30T06:07:27;11.73;;;6.50;;
60016;SDS011;45869;52.698;6.210;2023-04-30T06:09:53;9.57;;;6.03;;
60016;SDS011;45869;52.698;6.210;2023-04-30T06:12:19;13.73;;;6.07;;
60016;SDS011;45869;52.698;6.210;2023-04-30T06:14:45;10.40;;;5.57;;
60016;SDS011;45869;52.698;6.210;2023-04-30T06:17:11;12.45;;;6.15;;
60016;SDS011;45869;52.698;6.210;2023-04-30T06:19:38;11.93;;;6.50;;
60016;SDS011;45869;52.698;6.210;2023-04-30T06:22:04;10.43;;;5.82;;
60016;SDS011;45869;52.698;6.210;2023-04-30T06:24:30;14.55;;;6.57;;
60016;SDS011;45869;52.698;6.210;2023-04-30T06:26:56;9.50;;;5.50;;
60016;SDS011;45869;52.698;6.210;2023-04-30T06:29:27;12.32;;;5.90;;
60016;SDS011;45869;52.698;6.210;2023-04-30T06:31:53;11.20;;;5.95;;
60016;SDS011;45869;52.698;6.210;2023-04-30T06:34:20;12.15;;;5.82;;
60016;SDS011;45869;52.698;6.210;2023-04-30T06:36:46;12.60;;;6.10;;
60016;SDS011;45869;52.698;6.210;2023-04-30T06:39:13;13.10;;;5.63;;
60016;SDS011;45869;52.698;6.210;2023-04-30T06:41:39;10.30;;;6.00;;
60016;SDS011;45869;52.698;6.210;2023-04-30T06:44:06;12.25;;;6.10;;
60016;SDS011;45869;52.698;6.210;2023-04-30T06:46:35;12.05;;;5.18;;
60016;SDS011;45869;52.698;6.210;2023-04-30T06:49:01;11.88;;;5.75;;
60016;SDS011;45869;52.698;6.210;2023-04-30T06:51:27;9.80;;;4.43;;
60016;SDS011;45869;52.698;6.210;2023-04-30T06:53:53;8.00;;;4.38;;
60016;SDS011;45869;52.698;6.210;2023-04-30T06:56:20;13.50;;;4.25;;
60016;SDS011;45869;52.698;6.210;2023-04-30T06:58:46;10.50;;;3.75;;
60016;SDS011;45869;52.698;6.210;2023-04-30T07:01:14;11.52;;;4.10;;
60016;SDS011;45869;52.698;6.210;2023-04-30T07:03:40;11.05;;;3.88;;
60016;SDS011;45869;52.698;6.210;2023-04-30T07:06:06;14.18;;;3.60;;
60016;SDS011;45869;52.698;6.210;2023-04-30T07:08:32;6.65;;;2.65;;
60016;SDS011;45869;52.698;6.210;2023-04-30T07:10:58;8.93;;;2.60;;
60016;SDS011;45869;52.698;6.210;2023-04-30T07:13:24;7.07;;;2.40;;
60016;SDS011;45869;52.698;6.210;2023-04-30T07:15:50;7.30;;;2.60;;
60016;SDS011;45869;52.698;6.210;2023-04-30T07:18:22;11.07;;;2.95;;
60016;SDS011;45869;52.698;6.210;2023-04-30T07:20:48;7.78;;;2.65;;
60016;SDS011;45869;52.698;6.210;2023-04-30T07:23:14;9.90;;;2.95;;
60016;SDS011;45869;52.698;6.210;2023-04-30T07:25:40;9.00;;;2.90;;
60016;SDS011;45869;52.698;6.210;2023-04-30T07:28:06;9.27;;;2.90;;
60016;SDS011;45869;52.698;6.210;2023-04-30T07:30:32;7.18;;;2.60;;
60016;SDS011;45869;52.698;6.210;2023-04-30T07:32:58;6.18;;;2.60;;
60016;SDS011;45869;52.698;6.210;2023-04-30T07:35:24;7.72;;;2.90;;
60016;SDS011;45869;52.698;6.210;2023-04-30T07:37:50;7.20;;;2.80;;
60016;SDS011;45869;52.698;6.210;2023-04-30T07:40:16;9.45;;;2.90;;
60016;SDS011;45869;52.698;6.210;2023-04-30T07:42:42;8.20;;;2.83;;
60016;SDS011;45869;52.698;6.210;2023-04-30T07:45:11;8.05;;;3.03;;
60016;SDS011;45869;52.698;6.210;2023-04-30T07:47:38;9.57;;;2.72;;
60016;SDS011;45869;52.698;6.210;2023-04-30T07:50:04;6.25;;;2.22;;
60016;SDS011;45869;52.698;6.210;2023-04-30T07:52:30;10.43;;;3.05;;
60016;SDS011;45869;52.698;6.210;2023-04-30T07:54:56;7.68;;;3.13;;
60016;SDS011;45869;52.698;6.210;2023-04-30T07:57:22;7.88;;;2.80;;
60016;SDS011;45869;52.698;6.210;2023-04-30T07:59:51;9.13;;;3.20;;
60016;SDS011;45869;52.698;6.210;2023-04-30T08:02:17;7.00;;;3.00;;
60016;SDS011;45869;52.698;6.210;2023-04-30T08:04:43;8.10;;;2.65;;
60016;SDS011;45869;52.698;6.210;2023-04-30T08:07:09;6.80;;;2.72;;
60016;SDS011;45869;52.698;6.210;2023-04-30T08:09:35;6.43;;;2.75;;
60016;SDS011;45869;52.698;6.210;2023-04-30T08:12:01;7.15;;;3.13;;
60016;SDS011;45869;52.698;6.210;2023-04-30T08:14:29;7.80;;;3.10;;
60016;SDS011;45869;52.698;6.210;2023-04-30T08:16:55;7.15;;;2.95;;
60016;SDS011;45869;52.698;6.210;2023-04-30T08:19:23;6.22;;;2.80;;
60016;SDS011;45869;52.698;6.210;2023-04-30T08:21:49;9.77;;;3.17;;
60016;SDS011;45869;52.698;6.210;2023-04-30T08:24:15;7.03;;;3.47;;
60016;SDS011;45869;52.698;6.210;2023-04-30T08:26:47;6.97;;;3.10;;
60016;SDS011;45869;52.698;6.210;2023-04-30T08:29:16;7.60;;;2.97;;
60016;SDS011;45869;52.698;6.210;2023-04-30T08:31:42;8.77;;;3.13;;
60016;SDS011;45869;52.698;6.210;2023-04-30T08:34:08;8.65;;;2.78;;
60016;SDS011;45869;52.698;6.210;2023-04-30T08:36:34;9.10;;;3.10;;
60016;SDS011;45869;52.698;6.210;2023-04-30T08:39:00;9.23;;;3.05;;
60016;SDS011;45869;52.698;6.210;2023-04-30T08:41:26;8.40;;;3.17;;
60016;SDS011;45869;52.698;6.210;2023-04-30T08:43:58;7.25;;;3.38;;
60016;SDS011;45869;52.698;6.210;2023-04-30T08:46:25;6.38;;;2.40;;
60016;SDS011;45869;52.698;6.210;2023-04-30T08:48:52;8.15;;;3.40;;
60016;SDS011;45869;52.698;6.210;2023-04-30T08:51:18;6.47;;;3.10;;
60016;SDS011;45869;52.698;6.210;2023-04-30T08:53:45;8.07;;;3.00;;
60016;SDS011;45869;52.698;6.210;2023-04-30T08:56:11;6.35;;;2.35;;
60016;SDS011;45869;52.698;6.210;2023-04-30T08:58:37;7.25;;;2.67;;
60016;SDS011;45869;52.698;6.210;2023-04-30T09:01:04;7.75;;;2.70;;
60016;SDS011;45869;52.698;6.210;2023-04-30T09:03:33;8.23;;;2.40;;
60016;SDS011;45869;52.698;6.210;2023-04-30T09:05:59;9.45;;;2.80;;
60016;SDS011;45869;52.698;6.210;2023-04-30T09:08:44;6.38;;;2.83;;
60016;SDS011;45869;52.698;6.210;2023-04-30T09:13:52;9.30;;;2.50;;
60016;SDS011;45869;52.698;6.210;2023-04-30T09:16:22;6.70;;;2.80;;
60016;SDS011;45869;52.698;6.210;2023-04-30T09:18:48;6.85;;;2.55;;
60016;SDS011;45869;52.698;6.210;2023-04-30T09:21:14;7.47;;;2.88;;
60016;SDS011;45869;52.698;6.210;2023-04-30T09:26:39;4.85;;;2.40;;
60016;SDS011;45869;52.698;6.210;2023-04-30T09:29:05;6.88;;;2.55;;
60016;SDS011;45869;52.698;6.210;2023-04-30T09:31:35;5.47;;;2.70;;
60016;SDS011;45869;52.698;6.210;2023-04-30T09:34:02;5.35;;;2.25;;
60016;SDS011;45869;52.698;6.210;2023-04-30T09:36:31;6.75;;;2.55;;
60016;SDS011;45869;52.698;6.210;2023-04-30T09:41:32;7.10;;;2.80;;
60016;SDS011;45869;52.698;6.210;2023-04-30T09:43:58;8.27;;;2.95;;
60016;SDS011;45869;52.698;6.210;2023-04-30T09:46:31;6.38;;;2.80;;
60016;SDS011;45869;52.698;6.210;2023-04-30T09:48:58;8.13;;;2.97;;
60016;SDS011;45869;52.698;6.210;2023-04-30T09:51:25;10.15;;;3.13;;
60016;SDS011;45869;52.698;6.210;2023-04-30T09:53:51;5.82;;;2.47;;
60016;SDS011;45869;52.698;6.210;2023-04-30T09:56:21;6.40;;;2.55;;
60016;SDS011;45869;52.698;6.210;2023-04-30T09:58:51;7.28;;;2.35;;
60016;SDS011;45869;52.698;6.210;2023-04-30T10:01:18;6.68;;;2.83;;
60016;SDS011;45869;52.698;6.210;2023-04-30T10:03:44;6.18;;;2.13;;
60016;SDS011;45869;52.698;6.210;2023-04-30T10:06:11;6.68;;;2.47;;
60016;SDS011;45869;52.698;6.210;2023-04-30T10:08:42;7.18;;;2.40;;
60016;SDS011;45869;52.698;6.210;2023-04-30T10:11:09;5.10;;;2.60;;
60016;SDS011;45869;52.698;6.210;2023-04-30T10:18:54;6.95;;;2.75;;
60016;SDS011;45869;52.698;6.210;2023-04-30T10:21:23;6.68;;;2.60;;
60016;SDS011;45869;52.698;6.210;2023-04-30T10:23:51;6.82;;;2.40;;
60016;SDS011;45869;52.698;6.210;2023-04-30T10:26:17;7.60;;;2.10;;
60016;SDS011;45869;52.698;6.210;2023-04-30T10:28:44;5.70;;;2.17;;
60016;SDS011;45869;52.698;6.210;2023-04-30T10:31:10;4.85;;;2.10;;
60016;SDS011;45869;52.698;6.210;2023-04-30T10:33:53;6.38;;;2.22;;
60016;SDS011;45869;52.698;6.210;2023-04-30T10:36:28;7.07;;;2.20;;
60016;SDS011;45869;52.698;6.210;2023-04-30T10:38:55;6.87;;;2.60;;
60016;SDS011;45869;52.698;6.210;2023-04-30T10:41:21;6.05;;;1.90;;
60016;SDS011;45869;52.698;6.210;2023-04-30T10:43:47;8.07;;;2.55;;
60016;SDS011;45869;52.698;6.210;2023-04-30T10:46:22;5.38;;;2.22;;
60016;SDS011;45869;52.698;6.210;2023-04-30T10:48:49;5.78;;;2.15;;
60016;SDS011;45869;52.698;6.210;2023-04-30T10:51:14;7.22;;;1.95;;
60016;SDS011;45869;52.698;6.210;2023-04-30T10:53:41;10.57;;;2.33;;
60016;SDS011;45869;52.698;6.210;2023-04-30T10:56:08;8.05;;;2.13;;
60016;SDS011;45869;52.698;6.210;2023-04-30T10:58:35;6.35;;;2.13;;
60016;SDS011;45869;52.698;6.210;2023-04-30T11:03:34;6.18;;;1.88;;
60016;SDS011;45869;52.698;6.210;2023-04-30T11:06:06;7.03;;;1.52;;
60016;SDS011;45869;52.698;6.210;2023-04-30T11:08:36;7.68;;;2.20;;
60016;SDS011;45869;52.698;6.210;2023-04-30T11:11:04;4.95;;;1.92;;
60016;SDS011;45869;52.698;6.210;2023-04-30T11:13:39;4.30;;;1.88;;
60016;SDS011;45869;52.698;6.210;2023-04-30T11:16:06;3.55;;;1.73;;
60016;SDS011;45869;52.698;6.210;2023-04-30T11:18:32;4.32;;;1.63;;
60016;SDS011;45869;52.698;6.210;2023-04-30T11:20:58;5.18;;;2.13;;
60016;SDS011;45869;52.698;6.210;2023-04-30T11:23:27;4.95;;;2.03;;
60016;SDS011;45869;52.698;6.210;2023-04-30T11:25:53;7.40;;;2.22;;
60016;SDS011;45869;52.698;6.210;2023-04-30T11:28:25;6.75;;;1.80;;
60016;SDS011;45869;52.698;6.210;2023-04-30T11:30:52;7.32;;;2.00;;
60016;SDS011;45869;52.698;6.210;2023-04-30T11:33:18;5.78;;;2.30;;
60016;SDS011;45869;52.698;6.210;2023-04-30T11:35:44;5.43;;;2.22;;
60016;SDS011;45869;52.698;6.210;2023-04-30T11:38:11;6.18;;;1.75;;
60016;SDS011;45869;52.698;6.210;2023-04-30T11:40:37;6.32;;;1.90;;
60016;SDS011;45869;52.698;6.210;2023-04-30T11:43:03;4.85;;;1.90;;
60016;SDS011;45869;52.698;6.210;2023-04-30T11:45:30;6.53;;;2.20;;
60016;SDS011;45869;52.698;6.210;2023-04-30T11:47:56;4.90;;;1.95;;
60016;SDS011;45869;52.698;6.210;2023-04-30T11:50:23;4.47;;;1.70;;
60016;SDS011;45869;52.698;6.210;2023-04-30T11:52:53;4.80;;;1.92;;
60016;SDS011;45869;52.698;6.210;2023-04-30T11:55:20;4.38;;;2.08;;
60016;SDS011;45869;52.698;6.210;2023-04-30T11:57:48;4.80;;;1.80;;
60016;SDS011;45869;52.698;6.210;2023-04-30T12:00:15;4.75;;;1.65;;
60016;SDS011;45869;52.698;6.210;2023-04-30T12:02:42;4.47;;;1.75;;
60016;SDS011;45869;52.698;6.210;2023-04-30T12:05:22;4.70;;;1.65;;
60016;SDS011;45869;52.698;6.210;2023-04-30T12:07:50;6.32;;;2.00;;
60016;SDS011;45869;52.698;6.210;2023-04-30T12:10:19;7.13;;;1.73;;
60016;SDS011;45869;52.698;6.210;2023-04-30T12:12:46;5.43;;;1.55;;
60016;SDS011;45869;52.698;6.210;2023-04-30T12:15:16;3.55;;;1.65;;
60016;SDS011;45869;52.698;6.210;2023-04-30T12:17:42;4.40;;;1.77;;
60016;SDS011;45869;52.698;6.210;2023-04-30T12:20:09;4.72;;;1.88;;
60016;SDS011;45869;52.698;6.210;2023-04-30T12:22:35;5.22;;;1.90;;
60016;SDS011;45869;52.698;6.210;2023-04-30T12:25:05;5.25;;;1.83;;
60016;SDS011;45869;52.698;6.210;2023-04-30T12:27:34;3.40;;;1.73;;
60016;SDS011;45869;52.698;6.210;2023-04-30T12:30:06;5.25;;;1.70;;
60016;SDS011;45869;52.698;6.210;2023-04-30T12:32:39;5.10;;;1.65;;
60016;SDS011;45869;52.698;6.210;2023-04-30T12:35:05;4.10;;;1.67;;
60016;SDS011;45869;52.698;6.210;2023-04-30T12:37:32;7.00;;;1.90;;
60016;SDS011;45869;52.698;6.210;2023-04-30T12:39:58;4.15;;;1.65;;
60016;SDS011;45869;52.698;6.210;2023-04-30T12:42:30;5.43;;;1.70;;
60016;SDS011;45869;52.698;6.210;2023-04-30T12:44:57;5.00;;;1.75;;
60016;SDS011;45869;52.698;6.210;2023-04-30T12:47:23;4.38;;;1.67;;
60016;SDS011;45869;52.698;6.210;2023-04-30T12:49:49;4.15;;;1.73;;
60016;SDS011;45869;52.698;6.210;2023-04-30T12:52:16;4.68;;;1.85;;
60016;SDS011;45869;52.698;6.210;2023-04-30T12:54:42;4.68;;;2.00;;
60016;SDS011;45869;52.698;6.210;2023-04-30T12:57:09;4.63;;;1.90;;
60016;SDS011;45869;52.698;6.210;2023-04-30T12:59:37;5.28;;;2.00;;
60016;SDS011;45869;52.698;6.210;2023-04-30T13:02:10;4.50;;;1.60;;
60016;SDS011;45869;52.698;6.210;2023-04-30T13:04:37;5.63;;;1.88;;
60016;SDS011;45869;52.698;6.210;2023-04-30T13:07:03;6.03;;;1.83;;
60016;SDS011;45869;52.698;6.210;2023-04-30T13:09:41;5.60;;;1.85;;
60016;SDS011;45869;52.698;6.210;2023-04-30T13:12:07;5.10;;;2.15;;
60016;SDS011;45869;52.698;6.210;2023-04-30T13:14:33;4.03;;;1.63;;
60016;SDS011;45869;52.698;6.210;2023-04-30T13:17:00;4.80;;;1.80;;
60016;SDS011;45869;52.698;6.210;2023-04-30T13:19:29;6.85;;;2.00;;
60016;SDS011;45869;52.698;6.210;2023-04-30T13:21:56;5.45;;;1.70;;
60016;SDS011;45869;52.698;6.210;2023-04-30T13:24:23;3.60;;;1.73;;
60016;SDS011;45869;52.698;6.210;2023-04-30T13:27:01;4.20;;;1.42;;
60016;SDS011;45869;52.698;6.210;2023-04-30T13:29:28;4.55;;;1.88;;
60016;SDS011;45869;52.698;6.210;2023-04-30T13:31:56;3.60;;;1.52;;
60016;SDS011;45869;52.698;6.210;2023-04-30T13:34:23;3.15;;;1.50;;
60016;SDS011;45869;52.698;6.210;2023-04-30T13:36:49;4.82;;;1.63;;
60016;SDS011;45869;52.698;6.210;2023-04-30T13:39:22;4.70;;;1.75;;
60016;SDS011;45869;52.698;6.210;2023-04-30T13:41:54;4.78;;;1.75;;
60016;SDS011;45869;52.698;6.210;2023-04-30T13:44:20;3.60;;;1.65;;
60016;SDS011;45869;52.698;6.210;2023-04-30T13:46:46;5.15;;;1.77;;
60016;SDS011;45869;52.698;6.210;2023-04-30T13:49:12;5.07;;;1.85;;
60016;SDS011;45869;52.698;6.210;2023-04-30T13:51:38;3.20;;;1.45;;
60016;SDS011;45869;52.698;6.210;2023-04-30T13:54:04;6.47;;;1.55;;
60016;SDS011;45869;52.698;6.210;2023-04-30T13:56:30;5.70;;;1.70;;
60016;SDS011;45869;52.698;6.210;2023-04-30T13:58:56;2.95;;;1.00;;
60016;SDS011;45869;52.698;6.210;2023-04-30T14:01:22;4.13;;;1.17;;
60016;SDS011;45869;52.698;6.210;2023-04-30T14:03:48;3.97;;;1.20;;
60016;SDS011;45869;52.698;6.210;2023-04-30T14:06:14;4.70;;;1.45;;
60016;SDS011;45869;52.698;6.210;2023-04-30T14:08:41;3.85;;;1.35;;
60016;SDS011;45869;52.698;6.210;2023-04-30T14:11:07;5.03;;;1.45;;
60016;SDS011;45869;52.698;6.210;2023-04-30T14:13:33;4.88;;;1.35;;
60016;SDS011;45869;52.698;6.210;2023-04-30T14:16:02;2.92;;;1.40;;
60016;SDS011;45869;52.698;6.210;2023-04-30T14:18:31;3.05;;;1.10;;
60016;SDS011;45869;52.698;6.210;2023-04-30T14:20:57;4.15;;;1.50;;
60016;SDS011;45869;52.698;6.210;2023-04-30T14:23:23;4.78;;;1.40;;
60016;SDS011;45869;52.698;6.210;2023-04-30T14:25:50;5.22;;;1.38;;
60016;SDS011;45869;52.698;6.210;2023-04-30T14:28:15;4.50;;;1.50;;
60016;SDS011;45869;52.698;6.210;2023-04-30T14:30:42;3.80;;;1.42;;
60016;SDS011;45869;52.698;6.210;2023-04-30T14:33:08;4.10;;;1.30;;
60016;SDS011;45869;52.698;6.210;2023-04-30T14:35:36;3.70;;;1.30;;
60016;SDS011;45869;52.698;6.210;2023-04-30T14:38:02;5.30;;;1.00;;
60016;SDS011;45869;52.698;6.210;2023-04-30T14:40:28;4.28;;;1.33;;
60016;SDS011;45869;52.698;6.210;2023-04-30T14:42:54;3.40;;;1.00;;
60016;SDS011;45869;52.698;6.210;2023-04-30T14:45:20;3.50;;;1.10;;
60016;SDS011;45869;52.698;6.210;2023-04-30T14:47:46;4.55;;;1.10;;
60016;SDS011;45869;52.698;6.210;2023-04-30T14:50:12;5.30;;;1.25;;
60016;SDS011;45869;52.698;6.210;2023-04-30T14:52:38;3.97;;;1.13;;
60016;SDS011;45869;52.698;6.210;2023-04-30T14:55:06;2.97;;;0.95;;
60016;SDS011;45869;52.698;6.210;2023-04-30T14:57:32;2.85;;;0.95;;
60016;SDS011;45869;52.698;6.210;2023-04-30T14:59:59;3.17;;;0.93;;
60016;SDS011;45869;52.698;6.210;2023-04-30T15:02:25;3.33;;;1.25;;
60016;SDS011;45869;52.698;6.210;2023-04-30T15:04:54;2.55;;;1.15;;
60016;SDS011;45869;52.698;6.210;2023-04-30T15:07:20;3.35;;;0.90;;
60016;SDS011;45869;52.698;6.210;2023-04-30T15:09:46;4.43;;;1.10;;
60016;SDS011;45869;52.698;6.210;2023-04-30T15:12:12;2.65;;;0.80;;
60016;SDS011;45869;52.698;6.210;2023-04-30T15:14:38;4.40;;;1.23;;
60016;SDS011;45869;52.698;6.210;2023-04-30T15:17:05;3.08;;;0.90;;